sensor_id;sensor_type;location;lat;lon;timestamp;temperature;humidity
56298;DHT22;42208;6.376;-10.782;2023-07-22T00:02:09;25.40;99.90
56298;DHT22;42208;6.376;-10.782;2023-07-22T00:04:39;25.40;99.90
56298;DHT22;42208;6.376;-10.782;2023-07-22T00:07:07;25.40;99.90
56298;DHT22;42208;6.376;-10.782;2023-07-22T00:09:36;25.40;99.90
56298;DHT22;42208;6.376;-10.782;2023-07-22T00:12:05;25.40;99.90
56298;DHT22;42208;6.376;-10.782;2023-07-22T00:14:40;25.30;99.90
56298;DHT22;42208;6.376;-10.782;2023-07-22T00:17:09;25.30;99.90
56298;DHT22;42208;6.376;-10.782;2023-07-22T00:19:38;25.20;99.90
56298;DHT22;42208;6.376;-10.782;2023-07-22T00:22:07;25.10;99.90
56298;DHT22;42208;6.376;-10.782;2023-07-22T00:24:36;25.00;99.90
56298;DHT22;42208;6.376;-10.782;2023-07-22T00:27:05;25.00;99.90
56298;DHT22;42208;6.376;-10.782;2023-07-22T00:29:33;25.00;99.90
56298;DHT22;42208;6.376;-10.782;2023-07-22T00:32:04;24.90;99.90
56298;DHT22;42208;6.376;-10.782;2023-07-22T00:34:33;24.90;99.90
56298;DHT22;42208;6.376;-10.782;2023-07-22T00:37:02;24.90;99.90
56298;DHT22;42208;6.376;-10.782;2023-07-22T00:39:30;25.00;99.90
56298;DHT22;42208;6.376;-10.782;2023-07-22T00:41:59;24.90;99.90
56298;DHT22;42208;6.376;-10.782;2023-07-22T00:44:27;24.90;99.90
56298;DHT22;42208;6.376;-10.782;2023-07-22T00:46:58;24.90;99.90
56298;DHT22;42208;6.376;-10.782;2023-07-22T00:49:27;24.90;99.90
56298;DHT22;42208;6.376;-10.782;2023-07-22T00:52:02;24.90;99.90
56298;DHT22;42208;6.376;-10.782;2023-07-22T00:54:31;24.90;99.90
56298;DHT22;42208;6.376;-10.782;2023-07-22T00:57:00;24.90;99.90
56298;DHT22;42208;6.376;-10.782;2023-07-22T00:59:33;24.90;99.90
56298;DHT22;42208;6.376;-10.782;2023-07-22T01:02:01;24.90;99.90
56298;DHT22;42208;6.376;-10.782;2023-07-22T01:04:33;24.90;99.90
56298;DHT22;42208;6.376;-10.782;2023-07-22T01:07:04;24.80;99.90
56298;DHT22;42208;6.376;-10.782;2023-07-22T01:09:37;24.80;99.90
56298;DHT22;42208;6.376;-10.782;2023-07-22T01:12:06;24.80;99.90
56298;DHT22;42208;6.376;-10.782;2023-07-22T01:14:41;24.70;99.90
56298;DHT22;42208;6.376;-10.782;2023-07-22T01:17:10;24.60;99.90
56298;DHT22;42208;6.376;-10.782;2023-07-22T01:19:39;24.60;99.90
56298;DHT22;42208;6.376;-10.782;2023-07-22T01:22:15;24.50;99.90
56298;DHT22;42208;6.376;-10.782;2023-07-22T01:24:44;24.50;99.90
56298;DHT22;42208;6.376;-10.782;2023-07-22T01:27:13;24.50;99.90
56298;DHT22;42208;6.376;-10.782;2023-07-22T01:29:42;24.50;99.90
56298;DHT22;42208;6.376;-10.782;2023-07-22T01:32:10;24.60;99.90
56298;DHT22;42208;6.376;-10.782;2023-07-22T01:34:39;24.50;99.90
56298;DHT22;42208;6.376;-10.782;2023-07-22T01:37:07;24.60;99.90
56298;DHT22;42208;6.376;-10.782;2023-07-22T01:39:36;24.50;99.90
56298;DHT22;42208;6.376;-10.782;2023-07-22T01:42:04;24.50;99.90
56298;DHT22;42208;6.376;-10.782;2023-07-22T01:44:33;24.50;99.90
56298;DHT22;42208;6.376;-10.782;2023-07-22T01:47:02;24.50;99.90
56298;DHT22;42208;6.376;-10.782;2023-07-22T01:49:31;24.50;99.90
56298;DHT22;42208;6.376;-10.782;2023-07-22T01:51:59;24.50;99.90
56298;DHT22;42208;6.376;-10.782;2023-07-22T01:54:28;24.40;99.90
56298;DHT22;42208;6.376;-10.782;2023-07-22T01:56:56;24.30;99.90
56298;DHT22;42208;6.376;-10.782;2023-07-22T01:59:25;24.20;99.90
56298;DHT22;42208;6.376;-10.782;2023-07-22T02:01:54;24.20;99.90
56298;DHT22;42208;6.376;-10.782;2023-07-22T02:04:22;24.20;99.90
56298;DHT22;42208;6.376;-10.782;2023-07-22T02:06:51;24.20;99.90
56298;DHT22;42208;6.376;-10.782;2023-07-22T02:09:20;24.20;99.90
56298;DHT22;42208;6.376;-10.782;2023-07-22T02:11:48;24.20;99.90
56298;DHT22;42208;6.376;-10.782;2023-07-22T02:14:17;24.20;99.90
56298;DHT22;42208;6.376;-10.782;2023-07-22T02:16:45;24.20;99.90
56298;DHT22;42208;6.376;-10.782;2023-07-22T02:19:14;24.20;99.90
56298;DHT22;42208;6.376;-10.782;2023-07-22T02:21:43;24.20;99.90
56298;DHT22;42208;6.376;-10.782;2023-07-22T02:24:14;24.10;99.90
56298;DHT22;42208;6.376;-10.782;2023-07-22T02:26:43;24.10;99.90
56298;DHT22;42208;6.376;-10.782;2023-07-22T02:29:12;24.20;99.90
56298;DHT22;42208;6.376;-10.782;2023-07-22T02:31:40;24.20;99.90
56298;DHT22;42208;6.376;-10.782;2023-07-22T02:34:09;24.10;99.90
56298;DHT22;42208;6.376;-10.782;2023-07-22T02:36:37;24.10;99.90
56298;DHT22;42208;6.376;-10.782;2023-07-22T02:39:06;24.10;99.90
56298;DHT22;42208;6.376;-10.782;2023-07-22T02:41:37;24.10;99.90
56298;DHT22;42208;6.376;-10.782;2023-07-22T02:44:06;24.10;99.90
56298;DHT22;42208;6.376;-10.782;2023-07-22T02:46:34;24.20;99.90
56298;DHT22;42208;6.376;-10.782;2023-07-22T02:49:03;24.20;99.90
56298;DHT22;42208;6.376;-10.782;2023-07-22T02:51:32;24.20;99.90
56298;DHT22;42208;6.376;-10.782;2023-07-22T02:54:00;24.10;99.90
56298;DHT22;42208;6.376;-10.782;2023-07-22T02:56:29;24.20;99.90
56298;DHT22;42208;6.376;-10.782;2023-07-22T02:58:58;24.20;99.90
56298;DHT22;42208;6.376;-10.782;2023-07-22T03:01:27;24.20;99.90
56298;DHT22;42208;6.376;-10.782;2023-07-22T03:03:56;24.30;99.90
56298;DHT22;42208;6.376;-10.782;2023-07-22T03:06:25;24.40;99.90
56298;DHT22;42208;6.376;-10.782;2023-07-22T03:08:59;24.40;99.90
56298;DHT22;42208;6.376;-10.782;2023-07-22T03:11:27;24.50;99.90
56298;DHT22;42208;6.376;-10.782;2023-07-22T03:13:56;24.50;99.90
56298;DHT22;42208;6.376;-10.782;2023-07-22T03:16:25;24.50;99.90
56298;DHT22;42208;6.376;-10.782;2023-07-22T03:18:54;24.50;99.90
56298;DHT22;42208;6.376;-10.782;2023-07-22T03:21:22;24.60;99.90
56298;DHT22;42208;6.376;-10.782;2023-07-22T03:23:51;24.60;99.90
56298;DHT22;42208;6.376;-10.782;2023-07-22T03:26:19;24.60;99.90
56298;DHT22;42208;6.376;-10.782;2023-07-22T03:28:48;24.60;99.90
56298;DHT22;42208;6.376;-10.782;2023-07-22T03:31:17;24.60;99.90
56298;DHT22;42208;6.376;-10.782;2023-07-22T03:33:45;24.70;99.90
56298;DHT22;42208;6.376;-10.782;2023-07-22T03:36:14;24.70;99.90
56298;DHT22;42208;6.376;-10.782;2023-07-22T03:38:42;24.70;99.90
56298;DHT22;42208;6.376;-10.782;2023-07-22T03:41:11;24.70;99.90
56298;DHT22;42208;6.376;-10.782;2023-07-22T03:43:45;24.70;99.90
56298;DHT22;42208;6.376;-10.782;2023-07-22T03:46:14;24.70;99.90
56298;DHT22;42208;6.376;-10.782;2023-07-22T03:48:42;24.70;99.90
56298;DHT22;42208;6.376;-10.782;2023-07-22T03:51:11;24.70;99.90
56298;DHT22;42208;6.376;-10.782;2023-07-22T03:53:47;24.70;99.90
56298;DHT22;42208;6.376;-10.782;2023-07-22T03:56:16;24.70;99.90
56298;DHT22;42208;6.376;-10.782;2023-07-22T03:58:45;24.70;99.90
56298;DHT22;42208;6.376;-10.782;2023-07-22T04:01:13;24.70;99.90
56298;DHT22;42208;6.376;-10.782;2023-07-22T04:03:42;24.70;99.90
56298;DHT22;42208;6.376;-10.782;2023-07-22T04:06:10;24.70;99.90
56298;DHT22;42208;6.376;-10.782;2023-07-22T04:08:39;24.70;99.90
56298;DHT22;42208;6.376;-10.782;2023-07-22T04:11:07;24.70;99.90
56298;DHT22;42208;6.376;-10.782;2023-07-22T04:13:36;24.70;99.90
56298;DHT22;42208;6.376;-10.782;2023-07-22T04:16:04;24.70;99.90
56298;DHT22;42208;6.376;-10.782;2023-07-22T04:18:34;24.70;99.90
56298;DHT22;42208;6.376;-10.782;2023-07-22T04:21:03;24.70;99.90
56298;DHT22;42208;6.376;-10.782;2023-07-22T04:23:31;24.70;99.90
56298;DHT22;42208;6.376;-10.782;2023-07-22T04:26:02;24.70;99.90
56298;DHT22;42208;6.376;-10.782;2023-07-22T04:28:31;24.70;99.90
56298;DHT22;42208;6.376;-10.782;2023-07-22T04:31:00;24.60;99.90
56298;DHT22;42208;6.376;-10.782;2023-07-22T04:33:28;24.70;99.90
56298;DHT22;42208;6.376;-10.782;2023-07-22T04:35:59;24.70;99.90
56298;DHT22;42208;6.376;-10.782;2023-07-22T04:38:28;24.70;99.90
56298;DHT22;42208;6.376;-10.782;2023-07-22T04:40:56;24.70;99.90
56298;DHT22;42208;6.376;-10.782;2023-07-22T04:43:25;24.70;99.90
56298;DHT22;42208;6.376;-10.782;2023-07-22T04:45:54;24.70;99.90
56298;DHT22;42208;6.376;-10.782;2023-07-22T04:48:22;24.70;99.90
56298;DHT22;42208;6.376;-10.782;2023-07-22T04:50:51;24.70;99.90
56298;DHT22;42208;6.376;-10.782;2023-07-22T04:53:20;24.70;99.90
56298;DHT22;42208;6.376;-10.782;2023-07-22T04:55:49;24.60;99.90
56298;DHT22;42208;6.376;-10.782;2023-07-22T04:58:17;24.60;99.90
56298;DHT22;42208;6.376;-10.782;2023-07-22T05:00:50;24.70;99.90
56298;DHT22;42208;6.376;-10.782;2023-07-22T05:03:21;24.70;99.90
56298;DHT22;42208;6.376;-10.782;2023-07-22T05:05:49;24.70;99.90
56298;DHT22;42208;6.376;-10.782;2023-07-22T05:08:19;24.70;99.90
56298;DHT22;42208;6.376;-10.782;2023-07-22T05:10:47;24.70;99.90
56298;DHT22;42208;6.376;-10.782;2023-07-22T05:13:18;24.60;99.90
56298;DHT22;42208;6.376;-10.782;2023-07-22T05:15:47;24.60;99.90
56298;DHT22;42208;6.376;-10.782;2023-07-22T05:18:15;24.60;99.90
56298;DHT22;42208;6.376;-10.782;2023-07-22T05:20:44;24.60;99.90
56298;DHT22;42208;6.376;-10.782;2023-07-22T05:23:13;24.60;99.90
56298;DHT22;42208;6.376;-10.782;2023-07-22T05:25:41;24.60;99.90
56298;DHT22;42208;6.376;-10.782;2023-07-22T05:28:10;24.60;99.90
56298;DHT22;42208;6.376;-10.782;2023-07-22T05:30:39;24.60;99.90
56298;DHT22;42208;6.376;-10.782;2023-07-22T05:33:10;24.60;99.90
56298;DHT22;42208;6.376;-10.782;2023-07-22T05:35:38;24.60;99.90
56298;DHT22;42208;6.376;-10.782;2023-07-22T05:38:07;24.60;99.90
56298;DHT22;42208;6.376;-10.782;2023-07-22T05:40:36;24.60;99.90
56298;DHT22;42208;6.376;-10.782;2023-07-22T05:43:04;24.50;99.90
56298;DHT22;42208;6.376;-10.782;2023-07-22T05:45:33;24.50;99.90
56298;DHT22;42208;6.376;-10.782;2023-07-22T05:48:01;24.50;99.90
56298;DHT22;42208;6.376;-10.782;2023-07-22T05:50:30;24.50;99.90
56298;DHT22;42208;6.376;-10.782;2023-07-22T05:52:58;24.50;99.90
56298;DHT22;42208;6.376;-10.782;2023-07-22T05:55:27;24.50;99.90
56298;DHT22;42208;6.376;-10.782;2023-07-22T05:57:56;24.40;99.90
56298;DHT22;42208;6.376;-10.782;2023-07-22T06:00:25;24.50;99.90
56298;DHT22;42208;6.376;-10.782;2023-07-22T06:02:53;24.50;99.90
56298;DHT22;42208;6.376;-10.782;2023-07-22T06:05:22;24.40;99.90
56298;DHT22;42208;6.376;-10.782;2023-07-22T06:07:51;24.50;99.90
56298;DHT22;42208;6.376;-10.782;2023-07-22T06:10:22;24.40;99.90
56298;DHT22;42208;6.376;-10.782;2023-07-22T06:12:51;24.50;99.90
56298;DHT22;42208;6.376;-10.782;2023-07-22T06:15:22;24.40;99.90
56298;DHT22;42208;6.376;-10.782;2023-07-22T06:17:51;24.40;99.90
56298;DHT22;42208;6.376;-10.782;2023-07-22T06:20:23;24.40;99.90
56298;DHT22;42208;6.376;-10.782;2023-07-22T06:22:51;24.40;99.90
56298;DHT22;42208;6.376;-10.782;2023-07-22T06:25:20;24.30;99.90
56298;DHT22;42208;6.376;-10.782;2023-07-22T06:27:49;24.40;99.90
56298;DHT22;42208;6.376;-10.782;2023-07-22T06:30:17;24.40;99.90
56298;DHT22;42208;6.376;-10.782;2023-07-22T06:32:46;24.30;99.90
56298;DHT22;42208;6.376;-10.782;2023-07-22T06:35:15;24.30;99.90
56298;DHT22;42208;6.376;-10.782;2023-07-22T06:37:44;24.40;99.90
56298;DHT22;42208;6.376;-10.782;2023-07-22T06:40:12;24.30;99.90
56298;DHT22;42208;6.376;-10.782;2023-07-22T06:42:41;24.30;99.90
56298;DHT22;42208;6.376;-10.782;2023-07-22T06:45:09;24.20;99.90
56298;DHT22;42208;6.376;-10.782;2023-07-22T06:47:38;24.20;99.90
56298;DHT22;42208;6.376;-10.782;2023-07-22T06:50:07;24.20;99.90
56298;DHT22;42208;6.376;-10.782;2023-07-22T06:52:35;24.20;99.90
56298;DHT22;42208;6.376;-10.782;2023-07-22T06:55:05;24.20;99.90
56298;DHT22;42208;6.376;-10.782;2023-07-22T06:57:34;24.20;99.90
56298;DHT22;42208;6.376;-10.782;2023-07-22T07:01:23;24.20;99.90
56298;DHT22;42208;6.376;-10.782;2023-07-22T07:03:51;24.20;99.90
56298;DHT22;42208;6.376;-10.782;2023-07-22T07:06:20;24.20;99.90
56298;DHT22;42208;6.376;-10.782;2023-07-22T07:08:49;24.20;99.90
56298;DHT22;42208;6.376;-10.782;2023-07-22T07:11:18;24.20;99.90
56298;DHT22;42208;6.376;-10.782;2023-07-22T07:13:48;24.20;99.90
56298;DHT22;42208;6.376;-10.782;2023-07-22T07:16:28;24.20;99.90
56298;DHT22;42208;6.376;-10.782;2023-07-22T07:18:58;24.20;99.90
56298;DHT22;42208;6.376;-10.782;2023-07-22T07:21:27;24.20;99.90
56298;DHT22;42208;6.376;-10.782;2023-07-22T07:23:57;24.20;99.90
56298;DHT22;42208;6.376;-10.782;2023-07-22T07:26:25;24.20;99.90
56298;DHT22;42208;6.376;-10.782;2023-07-22T07:28:55;24.20;99.90
56298;DHT22;42208;6.376;-10.782;2023-07-22T07:31:31;24.30;99.90
56298;DHT22;42208;6.376;-10.782;2023-07-22T07:34:00;24.30;99.90
56298;DHT22;42208;6.376;-10.782;2023-07-22T07:36:29;24.30;99.90
56298;DHT22;42208;6.376;-10.782;2023-07-22T07:38:58;24.30;99.90
56298;DHT22;42208;6.376;-10.782;2023-07-22T07:41:27;24.30;99.90
56298;DHT22;42208;6.376;-10.782;2023-07-22T07:43:56;24.30;99.90
56298;DHT22;42208;6.376;-10.782;2023-07-22T07:46:27;24.40;99.90
56298;DHT22;42208;6.376;-10.782;2023-07-22T07:48:58;24.30;99.90
56298;DHT22;42208;6.376;-10.782;2023-07-22T07:51:28;24.40;99.90
56298;DHT22;42208;6.376;-10.782;2023-07-22T07:54:00;24.30;99.90
56298;DHT22;42208;6.376;-10.782;2023-07-22T07:56:37;24.30;99.90
56298;DHT22;42208;6.376;-10.782;2023-07-22T07:59:06;24.30;99.90
56298;DHT22;42208;6.376;-10.782;2023-07-22T08:01:34;24.20;99.90
56298;DHT22;42208;6.376;-10.782;2023-07-22T08:04:03;24.20;99.90
56298;DHT22;42208;6.376;-10.782;2023-07-22T08:06:31;24.30;99.90
56298;DHT22;42208;6.376;-10.782;2023-07-22T08:09:00;24.20;99.90
56298;DHT22;42208;6.376;-10.782;2023-07-22T08:11:28;24.20;99.90
56298;DHT22;42208;6.376;-10.782;2023-07-22T08:13:57;24.20;99.90
56298;DHT22;42208;6.376;-10.782;2023-07-22T08:16:25;24.20;99.90
56298;DHT22;42208;6.376;-10.782;2023-07-22T08:18:55;24.20;99.90
56298;DHT22;42208;6.376;-10.782;2023-07-22T08:21:23;24.20;99.90
56298;DHT22;42208;6.376;-10.782;2023-07-22T08:23:52;24.10;99.90
56298;DHT22;42208;6.376;-10.782;2023-07-22T08:26:20;24.20;99.90
56298;DHT22;42208;6.376;-10.782;2023-07-22T08:28:49;24.10;99.90
56298;DHT22;42208;6.376;-10.782;2023-07-22T08:31:18;24.10;99.90
56298;DHT22;42208;6.376;-10.782;2023-07-22T08:33:46;24.10;99.90
56298;DHT22;42208;6.376;-10.782;2023-07-22T08:36:15;24.00;99.90
56298;DHT22;42208;6.376;-10.782;2023-07-22T08:38:44;24.00;99.90
56298;DHT22;42208;6.376;-10.782;2023-07-22T08:41:15;24.00;99.90
56298;DHT22;42208;6.376;-10.782;2023-07-22T08:43:45;24.00;99.90
56298;DHT22;42208;6.376;-10.782;2023-07-22T08:46:15;24.00;99.90
56298;DHT22;42208;6.376;-10.782;2023-07-22T08:48:47;24.00;99.90
56298;DHT22;42208;6.376;-10.782;2023-07-22T08:51:18;24.10;99.90
56298;DHT22;42208;6.376;-10.782;2023-07-22T08:53:47;24.10;99.90
56298;DHT22;42208;6.376;-10.782;2023-07-22T08:56:37;24.10;99.90
56298;DHT22;42208;6.376;-10.782;2023-07-22T08:59:06;24.10;99.90
56298;DHT22;42208;6.376;-10.782;2023-07-22T09:01:35;24.10;99.90
56298;DHT22;42208;6.376;-10.782;2023-07-22T09:04:04;24.10;99.90
56298;DHT22;42208;6.376;-10.782;2023-07-22T09:06:34;24.10;99.90
56298;DHT22;42208;6.376;-10.782;2023-07-22T09:09:03;24.10;99.90
56298;DHT22;42208;6.376;-10.782;2023-07-22T09:11:32;24.10;99.90
56298;DHT22;42208;6.376;-10.782;2023-07-22T09:14:02;24.10;99.90
56298;DHT22;42208;6.376;-10.782;2023-07-22T09:16:32;24.10;99.90
56298;DHT22;42208;6.376;-10.782;2023-07-22T09:19:03;24.20;99.90
56298;DHT22;42208;6.376;-10.782;2023-07-22T09:21:32;24.20;99.90
56298;DHT22;42208;6.376;-10.782;2023-07-22T09:24:21;24.20;99.90
56298;DHT22;42208;6.376;-10.782;2023-07-22T09:26:53;24.20;99.90
56298;DHT22;42208;6.376;-10.782;2023-07-22T09:29:40;24.20;99.90
56298;DHT22;42208;6.376;-10.782;2023-07-22T09:32:08;24.20;99.90
56298;DHT22;42208;6.376;-10.782;2023-07-22T09:34:37;24.20;99.90
56298;DHT22;42208;6.376;-10.782;2023-07-22T09:37:21;24.30;99.90
56298;DHT22;42208;6.376;-10.782;2023-07-22T09:39:56;24.30;99.90
56298;DHT22;42208;6.376;-10.782;2023-07-22T09:42:53;24.30;99.90
56298;DHT22;42208;6.376;-10.782;2023-07-22T09:45:24;24.30;99.90
56298;DHT22;42208;6.376;-10.782;2023-07-22T09:47:54;24.30;99.90
56298;DHT22;42208;6.376;-10.782;2023-07-22T09:50:25;24.30;99.90
56298;DHT22;42208;6.376;-10.782;2023-07-22T09:52:56;24.40;99.90
56298;DHT22;42208;6.376;-10.782;2023-07-22T09:55:30;24.40;99.90
56298;DHT22;42208;6.376;-10.782;2023-07-22T09:58:03;24.50;99.90
56298;DHT22;42208;6.376;-10.782;2023-07-22T10:00:34;24.50;99.90
56298;DHT22;42208;6.376;-10.782;2023-07-22T10:03:04;24.50;99.90
56298;DHT22;42208;6.376;-10.782;2023-07-22T10:05:38;24.50;99.90
56298;DHT22;42208;6.376;-10.782;2023-07-22T10:08:07;24.50;99.90
56298;DHT22;42208;6.376;-10.782;2023-07-22T10:10:38;24.40;99.90
56298;DHT22;42208;6.376;-10.782;2023-07-22T10:13:07;24.40;99.90
56298;DHT22;42208;6.376;-10.782;2023-07-22T10:15:37;24.50;99.90
56298;DHT22;42208;6.376;-10.782;2023-07-22T10:18:06;24.40;99.90
56298;DHT22;42208;6.376;-10.782;2023-07-22T10:20:34;24.40;99.90
56298;DHT22;42208;6.376;-10.782;2023-07-22T10:23:12;24.40;99.90
56298;DHT22;42208;6.376;-10.782;2023-07-22T10:25:42;24.40;99.90
56298;DHT22;42208;6.376;-10.782;2023-07-22T10:28:12;24.40;99.90
56298;DHT22;42208;6.376;-10.782;2023-07-22T10:30:46;24.40;99.90
56298;DHT22;42208;6.376;-10.782;2023-07-22T10:33:17;24.50;99.90
56298;DHT22;42208;6.376;-10.782;2023-07-22T10:36:19;24.50;99.90
56298;DHT22;42208;6.376;-10.782;2023-07-22T10:38:59;24.60;99.90
56298;DHT22;42208;6.376;-10.782;2023-07-22T10:41:32;24.50;99.90
56298;DHT22;42208;6.376;-10.782;2023-07-22T10:44:01;24.50;99.90
56298;DHT22;42208;6.376;-10.782;2023-07-22T10:46:41;24.60;99.90
56298;DHT22;42208;6.376;-10.782;2023-07-22T10:49:15;24.60;99.90
56298;DHT22;42208;6.376;-10.782;2023-07-22T10:51:48;24.60;99.90
56298;DHT22;42208;6.376;-10.782;2023-07-22T10:54:33;24.60;99.90
56298;DHT22;42208;6.376;-10.782;2023-07-22T10:57:23;24.70;99.90
56298;DHT22;42208;6.376;-10.782;2023-07-22T10:59:56;24.60;99.90
56298;DHT22;42208;6.376;-10.782;2023-07-22T11:02:25;24.60;99.90
56298;DHT22;42208;6.376;-10.782;2023-07-22T11:04:58;24.60;99.90
56298;DHT22;42208;6.376;-10.782;2023-07-22T11:07:43;24.50;99.90
56298;DHT22;42208;6.376;-10.782;2023-07-22T11:10:18;24.50;99.90
56298;DHT22;42208;6.376;-10.782;2023-07-22T11:12:48;24.50;99.90
56298;DHT22;42208;6.376;-10.782;2023-07-22T11:15:17;24.50;99.90
56298;DHT22;42208;6.376;-10.782;2023-07-22T11:17:46;24.40;99.90
56298;DHT22;42208;6.376;-10.782;2023-07-22T11:20:15;24.50;99.90
56298;DHT22;42208;6.376;-10.782;2023-07-22T11:22:44;24.50;99.90
56298;DHT22;42208;6.376;-10.782;2023-07-22T11:25:19;24.50;99.90
56298;DHT22;42208;6.376;-10.782;2023-07-22T11:27:48;24.50;99.90
56298;DHT22;42208;6.376;-10.782;2023-07-22T11:30:17;24.50;99.90
56298;DHT22;42208;6.376;-10.782;2023-07-22T11:32:46;24.50;99.90
56298;DHT22;42208;6.376;-10.782;2023-07-22T11:35:19;24.50;99.90
56298;DHT22;42208;6.376;-10.782;2023-07-22T11:37:59;24.50;99.90
56298;DHT22;42208;6.376;-10.782;2023-07-22T11:40:34;24.50;99.90
56298;DHT22;42208;6.376;-10.782;2023-07-22T11:43:02;24.60;99.90
56298;DHT22;42208;6.376;-10.782;2023-07-22T11:45:32;24.50;99.90
56298;DHT22;42208;6.376;-10.782;2023-07-22T11:48:08;24.60;99.90
56298;DHT22;42208;6.376;-10.782;2023-07-22T11:50:41;24.60;99.90
56298;DHT22;42208;6.376;-10.782;2023-07-22T11:53:14;24.60;99.90
56298;DHT22;42208;6.376;-10.782;2023-07-22T11:55:43;24.60;99.90
56298;DHT22;42208;6.376;-10.782;2023-07-22T11:58:12;24.50;99.90
56298;DHT22;42208;6.376;-10.782;2023-07-22T12:00:44;24.50;99.90
56298;DHT22;42208;6.376;-10.782;2023-07-22T12:05:21;24.50;99.90
56298;DHT22;42208;6.376;-10.782;2023-07-22T12:07:50;24.50;99.90
56298;DHT22;42208;6.376;-10.782;2023-07-22T12:10:19;24.50;99.90
56298;DHT22;42208;6.376;-10.782;2023-07-22T12:12:47;24.50;99.90
56298;DHT22;42208;6.376;-10.782;2023-07-22T12:15:18;24.50;99.90
56298;DHT22;42208;6.376;-10.782;2023-07-22T12:17:52;24.50;99.90
56298;DHT22;42208;6.376;-10.782;2023-07-22T12:22:55;24.50;99.90
56298;DHT22;42208;6.376;-10.782;2023-07-22T12:25:24;24.50;99.90
56298;DHT22;42208;6.376;-10.782;2023-07-22T12:27:53;24.50;99.90
56298;DHT22;42208;6.376;-10.782;2023-07-22T12:30:22;24.50;99.90
56298;DHT22;42208;6.376;-10.782;2023-07-22T12:32:50;24.60;99.90
56298;DHT22;42208;6.376;-10.782;2023-07-22T12:35:19;24.60;99.90
56298;DHT22;42208;6.376;-10.782;2023-07-22T12:37:48;24.60;99.90
56298;DHT22;42208;6.376;-10.782;2023-07-22T12:40:23;24.50;99.90
56298;DHT22;42208;6.376;-10.782;2023-07-22T12:42:51;24.50;99.90
56298;DHT22;42208;6.376;-10.782;2023-07-22T12:45:20;24.50;99.90
56298;DHT22;42208;6.376;-10.782;2023-07-22T12:47:48;24.50;99.90
56298;DHT22;42208;6.376;-10.782;2023-07-22T12:50:17;24.50;99.90
56298;DHT22;42208;6.376;-10.782;2023-07-22T12:52:45;24.40;99.90
56298;DHT22;42208;6.376;-10.782;2023-07-22T12:55:16;24.40;99.90
56298;DHT22;42208;6.376;-10.782;2023-07-22T12:57:44;24.40;99.90
56298;DHT22;42208;6.376;-10.782;2023-07-22T13:00:13;24.50;99.90
56298;DHT22;42208;6.376;-10.782;2023-07-22T13:02:42;24.50;99.90
56298;DHT22;42208;6.376;-10.782;2023-07-22T13:05:10;24.50;99.90
56298;DHT22;42208;6.376;-10.782;2023-07-22T13:07:39;24.50;99.90
56298;DHT22;42208;6.376;-10.782;2023-07-22T13:10:17;24.50;99.90
56298;DHT22;42208;6.376;-10.782;2023-07-22T13:13:04;24.40;99.90
56298;DHT22;42208;6.376;-10.782;2023-07-22T13:15:33;24.50;99.90
56298;DHT22;42208;6.376;-10.782;2023-07-22T13:18:02;24.40;99.90
56298;DHT22;42208;6.376;-10.782;2023-07-22T13:20:31;24.40;99.90
56298;DHT22;42208;6.376;-10.782;2023-07-22T13:23:00;24.50;99.90
56298;DHT22;42208;6.376;-10.782;2023-07-22T13:25:29;24.60;99.90
56298;DHT22;42208;6.376;-10.782;2023-07-22T13:27:58;24.60;99.90
56298;DHT22;42208;6.376;-10.782;2023-07-22T13:30:27;24.70;99.90
56298;DHT22;42208;6.376;-10.782;2023-07-22T13:32:55;24.70;99.90
56298;DHT22;42208;6.376;-10.782;2023-07-22T13:35:24;24.80;99.90
56298;DHT22;42208;6.376;-10.782;2023-07-22T13:37:54;24.80;99.90
56298;DHT22;42208;6.376;-10.782;2023-07-22T13:40:25;24.80;99.90
56298;DHT22;42208;6.376;-10.782;2023-07-22T13:42:54;24.90;99.90
56298;DHT22;42208;6.376;-10.782;2023-07-22T13:45:23;24.90;99.90
56298;DHT22;42208;6.376;-10.782;2023-07-22T13:47:52;25.00;99.90
56298;DHT22;42208;6.376;-10.782;2023-07-22T13:50:21;25.00;99.90
56298;DHT22;42208;6.376;-10.782;2023-07-22T13:52:50;25.00;99.90
56298;DHT22;42208;6.376;-10.782;2023-07-22T13:55:18;25.00;99.90
56298;DHT22;42208;6.376;-10.782;2023-07-22T13:57:47;25.00;99.90
56298;DHT22;42208;6.376;-10.782;2023-07-22T14:00:15;25.00;99.90
56298;DHT22;42208;6.376;-10.782;2023-07-22T14:02:44;25.10;99.90
56298;DHT22;42208;6.376;-10.782;2023-07-22T14:05:14;25.10;99.90
56298;DHT22;42208;6.376;-10.782;2023-07-22T14:07:43;25.20;99.90
56298;DHT22;42208;6.376;-10.782;2023-07-22T14:10:11;25.30;99.90
56298;DHT22;42208;6.376;-10.782;2023-07-22T14:12:40;25.30;99.90
56298;DHT22;42208;6.376;-10.782;2023-07-22T14:15:08;25.40;99.90
56298;DHT22;42208;6.376;-10.782;2023-07-22T14:17:37;25.30;99.90
56298;DHT22;42208;6.376;-10.782;2023-07-22T14:20:07;25.40;99.90
56298;DHT22;42208;6.376;-10.782;2023-07-22T14:22:36;25.40;99.90
56298;DHT22;42208;6.376;-10.782;2023-07-22T14:25:05;25.50;99.90
56298;DHT22;42208;6.376;-10.782;2023-07-22T14:27:33;25.60;99.90
56298;DHT22;42208;6.376;-10.782;2023-07-22T14:30:02;25.60;99.90
56298;DHT22;42208;6.376;-10.782;2023-07-22T14:32:31;25.70;99.90
56298;DHT22;42208;6.376;-10.782;2023-07-22T14:34:59;25.90;99.90
56298;DHT22;42208;6.376;-10.782;2023-07-22T14:37:28;26.00;99.90
56298;DHT22;42208;6.376;-10.782;2023-07-22T14:39:57;26.00;99.90
56298;DHT22;42208;6.376;-10.782;2023-07-22T14:42:25;26.10;99.90
56298;DHT22;42208;6.376;-10.782;2023-07-22T14:44:54;26.10;99.90
56298;DHT22;42208;6.376;-10.782;2023-07-22T14:47:22;26.10;99.90
56298;DHT22;42208;6.376;-10.782;2023-07-22T14:49:51;26.20;99.90
56298;DHT22;42208;6.376;-10.782;2023-07-22T14:52:20;26.20;99.90
56298;DHT22;42208;6.376;-10.782;2023-07-22T14:54:49;26.30;99.90
56298;DHT22;42208;6.376;-10.782;2023-07-22T14:57:18;26.30;99.90
56298;DHT22;42208;6.376;-10.782;2023-07-22T14:59:46;26.30;99.90
56298;DHT22;42208;6.376;-10.782;2023-07-22T15:02:15;26.40;99.90
56298;DHT22;42208;6.376;-10.782;2023-07-22T15:04:44;26.40;99.90
56298;DHT22;42208;6.376;-10.782;2023-07-22T15:07:12;26.40;99.90
56298;DHT22;42208;6.376;-10.782;2023-07-22T15:09:41;26.40;99.90
56298;DHT22;42208;6.376;-10.782;2023-07-22T15:12:09;26.40;99.90
56298;DHT22;42208;6.376;-10.782;2023-07-22T15:14:38;26.40;99.90
56298;DHT22;42208;6.376;-10.782;2023-07-22T15:17:06;26.50;99.90
56298;DHT22;42208;6.376;-10.782;2023-07-22T15:19:38;26.40;99.90
56298;DHT22;42208;6.376;-10.782;2023-07-22T15:22:08;26.40;99.90
56298;DHT22;42208;6.376;-10.782;2023-07-22T15:24:36;26.40;99.90
56298;DHT22;42208;6.376;-10.782;2023-07-22T15:27:05;26.50;99.90
56298;DHT22;42208;6.376;-10.782;2023-07-22T15:29:34;26.50;99.90
56298;DHT22;42208;6.376;-10.782;2023-07-22T15:32:02;26.50;99.90
56298;DHT22;42208;6.376;-10.782;2023-07-22T15:34:31;26.50;99.90
56298;DHT22;42208;6.376;-10.782;2023-07-22T15:36:59;26.50;99.90
56298;DHT22;42208;6.376;-10.782;2023-07-22T15:39:28;26.40;99.90